CheckWX is a tool to help pilots better visualize weather data.  It is not intended as a substitute for an official pre-flight weather briefing.

08:27:13 UTC

KLUK TAF
Cincinnati Municipal Lunken Field Airport
Cincinnati, Ohio, USA
KLUK 051136Z 0512/0612 VRB03KT 5SM BR SCT250 FM051300 09005KT P6SM SCT060 FM060100 VRB03KT P6SM SCT250 FM060700 00000KT 4SM BR SCT250

Jul-5@
12:00 UTC

Jul-5 @ 12:00 UTC

Jul-5@
13:00 UTC

Jul-5 @ 13:00 UTC

TAF KLUK 051136Z 0512/0612 VRB03KT 5SM BR SCT250

Expired

Wind
  • Variable at 3 KTS
Conditions
Mist
Cloud Levels
  • Scattered at 25,000' AGL

Jul-5@
13:00 UTC

Jul-5 @ 13:00 UTC

Jul-6@
01:00 UTC

Jul-6 @ 01:00 UTC

FM051300 09005KT P6SM SCT060

Expired

Wind
  • 090° at 5 KTS
Cloud Levels
  • Scattered at 6,000' AGL

Jul-6@
01:00 UTC

Jul-6 @ 01:00 UTC

Jul-6@
07:00 UTC

Jul-6 @ 07:00 UTC

FM060100 VRB03KT P6SM SCT250

Expired

Wind
  • Variable at 3 KTS
Cloud Levels
  • Scattered at 25,000' AGL

Jul-6@
07:00 UTC

Jul-6 @ 07:00 UTC

Jul-6@
12:00 UTC

Jul-6 @ 12:00 UTC

FM060700 00000KT 4SM BR SCT250

From

From Standard forecast or significant change

Conditions
Mist
Cloud Levels
  • Scattered at 25,000' AGL